sensor_id;sensor_type;location;lat;lon;timestamp;P1;durP1;ratioP1;P2;durP2;ratioP2
70800;SDS011;59616;52.170;5.386;2023-08-08T00:01:50;11.25;;;2.83;;
70800;SDS011;59616;52.170;5.386;2023-08-08T00:04:18;11.20;;;3.45;;
70800;SDS011;59616;52.170;5.386;2023-08-08T00:06:45;10.00;;;3.25;;
70800;SDS011;59616;52.170;5.386;2023-08-08T00:09:12;14.65;;;2.90;;
70800;SDS011;59616;52.170;5.386;2023-08-08T00:11:40;11.52;;;2.58;;
70800;SDS011;59616;52.170;5.386;2023-08-08T00:14:07;11.02;;;2.90;;
70800;SDS011;59616;52.170;5.386;2023-08-08T00:16:34;15.45;;;3.03;;
70800;SDS011;59616;52.170;5.386;2023-08-08T00:19:01;16.05;;;2.78;;
70800;SDS011;59616;52.170;5.386;2023-08-08T00:21:29;13.18;;;3.08;;
70800;SDS011;59616;52.170;5.386;2023-08-08T00:23:57;11.10;;;2.58;;
70800;SDS011;59616;52.170;5.386;2023-08-08T00:26:24;9.15;;;2.67;;
70800;SDS011;59616;52.170;5.386;2023-08-08T00:28:51;9.45;;;2.65;;
70800;SDS011;59616;52.170;5.386;2023-08-08T00:31:18;12.88;;;2.70;;
70800;SDS011;59616;52.170;5.386;2023-08-08T00:33:46;10.35;;;2.78;;
70800;SDS011;59616;52.170;5.386;2023-08-08T00:36:13;12.13;;;3.20;;
70800;SDS011;59616;52.170;5.386;2023-08-08T00:38:41;8.68;;;2.88;;
70800;SDS011;59616;52.170;5.386;2023-08-08T00:41:08;10.57;;;2.47;;
70800;SDS011;59616;52.170;5.386;2023-08-08T00:43:35;10.27;;;2.53;;
70800;SDS011;59616;52.170;5.386;2023-08-08T00:46:03;10.02;;;2.80;;
70800;SDS011;59616;52.170;5.386;2023-08-08T00:48:31;12.25;;;2.65;;
70800;SDS011;59616;52.170;5.386;2023-08-08T00:50:59;13.85;;;2.53;;
70800;SDS011;59616;52.170;5.386;2023-08-08T00:53:27;9.05;;;2.58;;
70800;SDS011;59616;52.170;5.386;2023-08-08T00:55:58;11.65;;;2.60;;
70800;SDS011;59616;52.170;5.386;2023-08-08T00:58:26;9.80;;;2.60;;
70800;SDS011;59616;52.170;5.386;2023-08-08T01:00:55;12.45;;;2.58;;
70800;SDS011;59616;52.170;5.386;2023-08-08T01:03:26;15.77;;;2.65;;
70800;SDS011;59616;52.170;5.386;2023-08-08T01:05:59;10.38;;;2.75;;
70800;SDS011;59616;52.170;5.386;2023-08-08T01:08:35;10.10;;;2.55;;
70800;SDS011;59616;52.170;5.386;2023-08-08T01:11:06;10.68;;;2.33;;
70800;SDS011;59616;52.170;5.386;2023-08-08T01:13:34;12.23;;;2.80;;
70800;SDS011;59616;52.170;5.386;2023-08-08T01:16:02;10.00;;;2.50;;
70800;SDS011;59616;52.170;5.386;2023-08-08T01:18:31;14.77;;;3.08;;
70800;SDS011;59616;52.170;5.386;2023-08-08T01:20:59;13.85;;;3.00;;
70800;SDS011;59616;52.170;5.386;2023-08-08T01:23:31;14.57;;;2.67;;
70800;SDS011;59616;52.170;5.386;2023-08-08T01:26:03;11.93;;;2.72;;
70800;SDS011;59616;52.170;5.386;2023-08-08T01:28:31;12.60;;;2.80;;
70800;SDS011;59616;52.170;5.386;2023-08-08T01:30:58;16.98;;;3.00;;
70800;SDS011;59616;52.170;5.386;2023-08-08T01:33:26;10.50;;;2.28;;
70800;SDS011;59616;52.170;5.386;2023-08-08T01:35:54;14.20;;;2.95;;
70800;SDS011;59616;52.170;5.386;2023-08-08T01:38:24;12.65;;;2.83;;
70800;SDS011;59616;52.170;5.386;2023-08-08T01:40:53;9.07;;;2.80;;
70800;SDS011;59616;52.170;5.386;2023-08-08T01:43:22;13.88;;;2.65;;
70800;SDS011;59616;52.170;5.386;2023-08-08T01:45:51;10.32;;;2.50;;
70800;SDS011;59616;52.170;5.386;2023-08-08T01:48:20;12.07;;;2.85;;
70800;SDS011;59616;52.170;5.386;2023-08-08T01:50:48;12.27;;;2.63;;
70800;SDS011;59616;52.170;5.386;2023-08-08T01:53:15;12.35;;;2.63;;
70800;SDS011;59616;52.170;5.386;2023-08-08T01:55:42;9.18;;;2.75;;
70800;SDS011;59616;52.170;5.386;2023-08-08T01:58:10;10.98;;;2.60;;
70800;SDS011;59616;52.170;5.386;2023-08-08T02:00:37;12.02;;;2.53;;
70800;SDS011;59616;52.170;5.386;2023-08-08T02:03:07;11.32;;;2.40;;
70800;SDS011;59616;52.170;5.386;2023-08-08T02:05:35;12.43;;;2.60;;
70800;SDS011;59616;52.170;5.386;2023-08-08T02:08:02;11.38;;;2.67;;
70800;SDS011;59616;52.170;5.386;2023-08-08T02:10:30;10.75;;;2.42;;
70800;SDS011;59616;52.170;5.386;2023-08-08T02:12:57;12.93;;;3.13;;
70800;SDS011;59616;52.170;5.386;2023-08-08T02:15:24;10.00;;;2.45;;
70800;SDS011;59616;52.170;5.386;2023-08-08T02:17:52;12.18;;;2.83;;
70800;SDS011;59616;52.170;5.386;2023-08-08T02:20:19;11.25;;;2.92;;
70800;SDS011;59616;52.170;5.386;2023-08-08T02:22:46;12.93;;;2.90;;
70800;SDS011;59616;52.170;5.386;2023-08-08T02:25:14;11.13;;;2.67;;
70800;SDS011;59616;52.170;5.386;2023-08-08T02:27:41;11.20;;;2.95;;
70800;SDS011;59616;52.170;5.386;2023-08-08T02:30:09;15.23;;;3.20;;
70800;SDS011;59616;52.170;5.386;2023-08-08T02:32:36;10.25;;;2.70;;
70800;SDS011;59616;52.170;5.386;2023-08-08T02:35:04;14.40;;;2.72;;
70800;SDS011;59616;52.170;5.386;2023-08-08T02:37:31;12.82;;;2.80;;
70800;SDS011;59616;52.170;5.386;2023-08-08T02:39:58;12.05;;;3.15;;
70800;SDS011;59616;52.170;5.386;2023-08-08T02:42:26;10.48;;;2.65;;
70800;SDS011;59616;52.170;5.386;2023-08-08T02:44:53;12.85;;;2.70;;
70800;SDS011;59616;52.170;5.386;2023-08-08T02:47:20;9.40;;;2.70;;
70800;SDS011;59616;52.170;5.386;2023-08-08T02:49:48;13.57;;;2.67;;
70800;SDS011;59616;52.170;5.386;2023-08-08T02:52:15;9.05;;;2.67;;
70800;SDS011;59616;52.170;5.386;2023-08-08T02:54:43;13.57;;;2.95;;
70800;SDS011;59616;52.170;5.386;2023-08-08T02:57:10;8.13;;;2.00;;
70800;SDS011;59616;52.170;5.386;2023-08-08T02:59:39;9.75;;;2.83;;
70800;SDS011;59616;52.170;5.386;2023-08-08T03:02:06;12.70;;;2.42;;
70800;SDS011;59616;52.170;5.386;2023-08-08T03:04:36;10.30;;;2.60;;
70800;SDS011;59616;52.170;5.386;2023-08-08T03:07:05;9.10;;;2.70;;
70800;SDS011;59616;52.170;5.386;2023-08-08T03:09:35;10.98;;;2.58;;
70800;SDS011;59616;52.170;5.386;2023-08-08T03:12:02;11.10;;;2.60;;
70800;SDS011;59616;52.170;5.386;2023-08-08T03:14:31;9.10;;;2.60;;
70800;SDS011;59616;52.170;5.386;2023-08-08T03:17:00;10.77;;;2.92;;
70800;SDS011;59616;52.170;5.386;2023-08-08T03:19:28;14.95;;;2.70;;
70800;SDS011;59616;52.170;5.386;2023-08-08T03:21:57;12.88;;;2.95;;
70800;SDS011;59616;52.170;5.386;2023-08-08T03:24:25;11.20;;;2.80;;
70800;SDS011;59616;52.170;5.386;2023-08-08T03:26:52;11.73;;;2.88;;
70800;SDS011;59616;52.170;5.386;2023-08-08T03:29:19;11.18;;;2.85;;
70800;SDS011;59616;52.170;5.386;2023-08-08T03:31:48;12.10;;;3.08;;
70800;SDS011;59616;52.170;5.386;2023-08-08T03:34:16;11.85;;;3.10;;
70800;SDS011;59616;52.170;5.386;2023-08-08T03:36:44;10.07;;;3.22;;
70800;SDS011;59616;52.170;5.386;2023-08-08T03:39:11;11.55;;;2.83;;
70800;SDS011;59616;52.170;5.386;2023-08-08T03:41:39;13.02;;;3.30;;
70800;SDS011;59616;52.170;5.386;2023-08-08T03:44:06;8.32;;;2.78;;
70800;SDS011;59616;52.170;5.386;2023-08-08T03:46:34;11.85;;;3.00;;
70800;SDS011;59616;52.170;5.386;2023-08-08T03:49:01;13.57;;;3.45;;
70800;SDS011;59616;52.170;5.386;2023-08-08T03:51:29;13.00;;;2.97;;
70800;SDS011;59616;52.170;5.386;2023-08-08T03:53:57;15.27;;;2.83;;
70800;SDS011;59616;52.170;5.386;2023-08-08T03:56:25;10.48;;;2.90;;
70800;SDS011;59616;52.170;5.386;2023-08-08T03:58:54;12.13;;;2.72;;
70800;SDS011;59616;52.170;5.386;2023-08-08T04:01:21;10.00;;;2.88;;
70800;SDS011;59616;52.170;5.386;2023-08-08T04:03:48;12.43;;;3.15;;
70800;SDS011;59616;52.170;5.386;2023-08-08T04:06:16;9.27;;;2.55;;
70800;SDS011;59616;52.170;5.386;2023-08-08T04:08:43;9.57;;;2.78;;
70800;SDS011;59616;52.170;5.386;2023-08-08T04:11:11;14.38;;;3.05;;
70800;SDS011;59616;52.170;5.386;2023-08-08T04:13:38;10.35;;;2.80;;
70800;SDS011;59616;52.170;5.386;2023-08-08T04:16:06;10.68;;;3.13;;
70800;SDS011;59616;52.170;5.386;2023-08-08T04:18:33;12.60;;;3.33;;
70800;SDS011;59616;52.170;5.386;2023-08-08T04:21:01;9.73;;;2.63;;
70800;SDS011;59616;52.170;5.386;2023-08-08T04:23:28;8.27;;;2.85;;
70800;SDS011;59616;52.170;5.386;2023-08-08T04:25:55;12.18;;;3.05;;
70800;SDS011;59616;52.170;5.386;2023-08-08T04:28:23;10.75;;;3.03;;
70800;SDS011;59616;52.170;5.386;2023-08-08T04:30:50;8.40;;;2.95;;
70800;SDS011;59616;52.170;5.386;2023-08-08T04:33:18;7.57;;;2.72;;
70800;SDS011;59616;52.170;5.386;2023-08-08T04:35:45;11.43;;;2.40;;
70800;SDS011;59616;52.170;5.386;2023-08-08T04:38:14;8.40;;;2.47;;
70800;SDS011;59616;52.170;5.386;2023-08-08T04:40:42;10.10;;;2.70;;
70800;SDS011;59616;52.170;5.386;2023-08-08T04:43:10;12.13;;;2.70;;
70800;SDS011;59616;52.170;5.386;2023-08-08T04:45:37;9.88;;;2.67;;
70800;SDS011;59616;52.170;5.386;2023-08-08T04:48:05;9.93;;;2.75;;
70800;SDS011;59616;52.170;5.386;2023-08-08T04:50:33;9.32;;;2.25;;
70800;SDS011;59616;52.170;5.386;2023-08-08T04:53:00;9.93;;;2.97;;
70800;SDS011;59616;52.170;5.386;2023-08-08T04:55:28;9.98;;;2.55;;
70800;SDS011;59616;52.170;5.386;2023-08-08T04:57:55;12.10;;;2.95;;
70800;SDS011;59616;52.170;5.386;2023-08-08T05:00:23;10.57;;;2.70;;
70800;SDS011;59616;52.170;5.386;2023-08-08T05:02:50;10.40;;;2.95;;
70800;SDS011;59616;52.170;5.386;2023-08-08T05:05:17;8.95;;;2.40;;
70800;SDS011;59616;52.170;5.386;2023-08-08T05:07:45;10.15;;;2.17;;
70800;SDS011;59616;52.170;5.386;2023-08-08T05:10:12;7.07;;;2.30;;
70800;SDS011;59616;52.170;5.386;2023-08-08T05:12:40;7.30;;;2.33;;
70800;SDS011;59616;52.170;5.386;2023-08-08T05:15:08;8.13;;;2.53;;
70800;SDS011;59616;52.170;5.386;2023-08-08T05:17:35;8.55;;;2.33;;
70800;SDS011;59616;52.170;5.386;2023-08-08T05:20:03;9.43;;;2.00;;
70800;SDS011;59616;52.170;5.386;2023-08-08T05:22:31;8.00;;;2.35;;
70800;SDS011;59616;52.170;5.386;2023-08-08T05:24:58;8.88;;;2.20;;
70800;SDS011;59616;52.170;5.386;2023-08-08T05:27:25;7.57;;;1.90;;
70800;SDS011;59616;52.170;5.386;2023-08-08T05:29:53;9.02;;;1.77;;
70800;SDS011;59616;52.170;5.386;2023-08-08T05:32:20;6.55;;;1.73;;
70800;SDS011;59616;52.170;5.386;2023-08-08T05:34:49;8.40;;;2.13;;
70800;SDS011;59616;52.170;5.386;2023-08-08T05:37:17;12.82;;;2.45;;
70800;SDS011;59616;52.170;5.386;2023-08-08T05:39:44;7.03;;;1.90;;
70800;SDS011;59616;52.170;5.386;2023-08-08T05:42:11;6.88;;;1.80;;
70800;SDS011;59616;52.170;5.386;2023-08-08T05:44:39;8.00;;;1.60;;
70800;SDS011;59616;52.170;5.386;2023-08-08T05:47:08;6.43;;;1.65;;
70800;SDS011;59616;52.170;5.386;2023-08-08T05:49:35;6.80;;;1.67;;
70800;SDS011;59616;52.170;5.386;2023-08-08T05:52:03;7.70;;;1.80;;
70800;SDS011;59616;52.170;5.386;2023-08-08T05:54:30;6.85;;;1.80;;
70800;SDS011;59616;52.170;5.386;2023-08-08T05:56:58;7.68;;;1.65;;
70800;SDS011;59616;52.170;5.386;2023-08-08T05:59:25;8.55;;;1.60;;
70800;SDS011;59616;52.170;5.386;2023-08-08T06:01:52;9.23;;;1.73;;
70800;SDS011;59616;52.170;5.386;2023-08-08T06:04:20;8.48;;;1.60;;
70800;SDS011;59616;52.170;5.386;2023-08-08T06:06:47;6.90;;;1.50;;
70800;SDS011;59616;52.170;5.386;2023-08-08T06:09:15;7.90;;;1.90;;
70800;SDS011;59616;52.170;5.386;2023-08-08T06:11:43;6.05;;;1.50;;
70800;SDS011;59616;52.170;5.386;2023-08-08T06:14:11;7.38;;;1.40;;
70800;SDS011;59616;52.170;5.386;2023-08-08T06:16:40;7.80;;;1.52;;
70800;SDS011;59616;52.170;5.386;2023-08-08T06:19:08;5.05;;;1.45;;
70800;SDS011;59616;52.170;5.386;2023-08-08T06:21:37;4.13;;;1.20;;
70800;SDS011;59616;52.170;5.386;2023-08-08T06:24:05;6.68;;;1.50;;
70800;SDS011;59616;52.170;5.386;2023-08-08T06:26:32;9.23;;;1.70;;
70800;SDS011;59616;52.170;5.386;2023-08-08T06:29:00;5.38;;;1.48;;
70800;SDS011;59616;52.170;5.386;2023-08-08T06:31:27;6.18;;;1.40;;
70800;SDS011;59616;52.170;5.386;2023-08-08T06:33:55;7.50;;;1.52;;
70800;SDS011;59616;52.170;5.386;2023-08-08T06:36:22;6.90;;;1.45;;
70800;SDS011;59616;52.170;5.386;2023-08-08T06:38:49;9.18;;;1.50;;
70800;SDS011;59616;52.170;5.386;2023-08-08T06:41:17;4.22;;;1.20;;
70800;SDS011;59616;52.170;5.386;2023-08-08T06:43:44;3.38;;;1.10;;
70800;SDS011;59616;52.170;5.386;2023-08-08T06:46:11;3.85;;;1.23;;
70800;SDS011;59616;52.170;5.386;2023-08-08T06:48:39;5.05;;;1.13;;
70800;SDS011;59616;52.170;5.386;2023-08-08T06:51:06;7.18;;;1.40;;
70800;SDS011;59616;52.170;5.386;2023-08-08T06:53:33;5.57;;;1.27;;
70800;SDS011;59616;52.170;5.386;2023-08-08T06:56:00;5.70;;;1.23;;
70800;SDS011;59616;52.170;5.386;2023-08-08T06:58:28;4.80;;;1.30;;
70800;SDS011;59616;52.170;5.386;2023-08-08T07:00:55;4.30;;;1.27;;
70800;SDS011;59616;52.170;5.386;2023-08-08T07:03:22;4.03;;;1.20;;
70800;SDS011;59616;52.170;5.386;2023-08-08T07:05:50;3.63;;;1.17;;
70800;SDS011;59616;52.170;5.386;2023-08-08T07:08:19;3.78;;;0.82;;
70800;SDS011;59616;52.170;5.386;2023-08-08T07:10:46;4.47;;;1.10;;
70800;SDS011;59616;52.170;5.386;2023-08-08T07:13:14;3.03;;;0.85;;
70800;SDS011;59616;52.170;5.386;2023-08-08T07:15:41;5.88;;;1.48;;
70800;SDS011;59616;52.170;5.386;2023-08-08T07:18:09;4.25;;;0.82;;
70800;SDS011;59616;52.170;5.386;2023-08-08T07:20:37;4.53;;;0.90;;
70800;SDS011;59616;52.170;5.386;2023-08-08T07:23:05;3.35;;;0.85;;
70800;SDS011;59616;52.170;5.386;2023-08-08T07:25:33;3.63;;;1.00;;
70800;SDS011;59616;52.170;5.386;2023-08-08T07:28:00;6.22;;;1.20;;
70800;SDS011;59616;52.170;5.386;2023-08-08T07:30:28;5.32;;;1.00;;
70800;SDS011;59616;52.170;5.386;2023-08-08T07:32:56;3.70;;;0.90;;
70800;SDS011;59616;52.170;5.386;2023-08-08T07:35:23;6.20;;;0.90;;
70800;SDS011;59616;52.170;5.386;2023-08-08T07:37:50;2.80;;;0.88;;
70800;SDS011;59616;52.170;5.386;2023-08-08T07:40:18;4.03;;;0.90;;
70800;SDS011;59616;52.170;5.386;2023-08-08T07:42:46;5.38;;;1.13;;
70800;SDS011;59616;52.170;5.386;2023-08-08T07:45:14;5.85;;;1.02;;
70800;SDS011;59616;52.170;5.386;2023-08-08T07:47:42;2.13;;;0.70;;
70800;SDS011;59616;52.170;5.386;2023-08-08T07:50:09;3.50;;;1.00;;
70800;SDS011;59616;52.170;5.386;2023-08-08T07:52:37;3.83;;;0.80;;
70800;SDS011;59616;52.170;5.386;2023-08-08T07:55:05;3.55;;;0.90;;
70800;SDS011;59616;52.170;5.386;2023-08-08T07:57:32;5.47;;;1.20;;
70800;SDS011;59616;52.170;5.386;2023-08-08T08:00:03;2.45;;;0.80;;
70800;SDS011;59616;52.170;5.386;2023-08-08T08:02:37;2.08;;;0.70;;
70800;SDS011;59616;52.170;5.386;2023-08-08T08:05:05;5.25;;;0.93;;
70800;SDS011;59616;52.170;5.386;2023-08-08T08:07:34;4.97;;;0.90;;
70800;SDS011;59616;52.170;5.386;2023-08-08T08:10:02;2.42;;;0.88;;
70800;SDS011;59616;52.170;5.386;2023-08-08T08:12:31;4.55;;;0.70;;
70800;SDS011;59616;52.170;5.386;2023-08-08T08:14:58;2.55;;;0.70;;
70800;SDS011;59616;52.170;5.386;2023-08-08T08:17:26;2.45;;;0.90;;
70800;SDS011;59616;52.170;5.386;2023-08-08T08:19:54;2.67;;;0.77;;
70800;SDS011;59616;52.170;5.386;2023-08-08T08:22:22;3.85;;;0.90;;
70800;SDS011;59616;52.170;5.386;2023-08-08T08:24:49;3.55;;;0.90;;
70800;SDS011;59616;52.170;5.386;2023-08-08T08:27:17;2.67;;;0.70;;
70800;SDS011;59616;52.170;5.386;2023-08-08T08:29:44;2.92;;;0.73;;
70800;SDS011;59616;52.170;5.386;2023-08-08T08:32:12;3.50;;;0.85;;
70800;SDS011;59616;52.170;5.386;2023-08-08T08:34:39;3.15;;;0.70;;
70800;SDS011;59616;52.170;5.386;2023-08-08T08:37:07;2.70;;;0.75;;
70800;SDS011;59616;52.170;5.386;2023-08-08T08:39:35;3.85;;;0.70;;
70800;SDS011;59616;52.170;5.386;2023-08-08T08:42:02;1.48;;;0.55;;
70800;SDS011;59616;52.170;5.386;2023-08-08T08:44:32;4.30;;;0.80;;
70800;SDS011;59616;52.170;5.386;2023-08-08T08:47:01;2.05;;;0.60;;
70800;SDS011;59616;52.170;5.386;2023-08-08T08:49:30;1.48;;;0.57;;
70800;SDS011;59616;52.170;5.386;2023-08-08T08:51:59;1.90;;;0.60;;
70800;SDS011;59616;52.170;5.386;2023-08-08T08:54:31;3.38;;;0.60;;
70800;SDS011;59616;52.170;5.386;2023-08-08T08:56:59;3.67;;;0.60;;
70800;SDS011;59616;52.170;5.386;2023-08-08T08:59:26;1.10;;;0.52;;
70800;SDS011;59616;52.170;5.386;2023-08-08T09:01:54;2.58;;;0.70;;
70800;SDS011;59616;52.170;5.386;2023-08-08T09:04:22;3.10;;;0.57;;
70800;SDS011;59616;52.170;5.386;2023-08-08T09:06:50;2.63;;;0.57;;
70800;SDS011;59616;52.170;5.386;2023-08-08T09:09:17;3.03;;;0.60;;
70800;SDS011;59616;52.170;5.386;2023-08-08T09:11:50;0.85;;;0.43;;
70800;SDS011;59616;52.170;5.386;2023-08-08T09:14:18;3.97;;;0.70;;
70800;SDS011;59616;52.170;5.386;2023-08-08T09:16:46;4.20;;;0.90;;
70800;SDS011;59616;52.170;5.386;2023-08-08T09:19:14;2.45;;;0.63;;
70800;SDS011;59616;52.170;5.386;2023-08-08T09:21:41;1.58;;;0.68;;
70800;SDS011;59616;52.170;5.386;2023-08-08T09:24:09;2.92;;;0.80;;
70800;SDS011;59616;52.170;5.386;2023-08-08T09:26:36;0.88;;;0.47;;
70800;SDS011;59616;52.170;5.386;2023-08-08T09:29:03;1.15;;;0.60;;
70800;SDS011;59616;52.170;5.386;2023-08-08T09:31:33;4.93;;;0.70;;
70800;SDS011;59616;52.170;5.386;2023-08-08T09:34:02;1.73;;;0.82;;
70800;SDS011;59616;52.170;5.386;2023-08-08T09:36:29;2.38;;;0.50;;
70800;SDS011;59616;52.170;5.386;2023-08-08T09:38:59;3.10;;;0.50;;
70800;SDS011;59616;52.170;5.386;2023-08-08T09:41:27;4.10;;;0.70;;
70800;SDS011;59616;52.170;5.386;2023-08-08T09:43:54;2.92;;;0.70;;
70800;SDS011;59616;52.170;5.386;2023-08-08T09:46:22;5.97;;;0.90;;
70800;SDS011;59616;52.170;5.386;2023-08-08T09:48:50;5.32;;;1.20;;
70800;SDS011;59616;52.170;5.386;2023-08-08T09:51:18;2.40;;;0.90;;
70800;SDS011;59616;52.170;5.386;2023-08-08T09:53:48;2.40;;;0.70;;
70800;SDS011;59616;52.170;5.386;2023-08-08T09:56:15;2.63;;;0.73;;
70800;SDS011;59616;52.170;5.386;2023-08-08T09:58:43;1.85;;;0.70;;
70800;SDS011;59616;52.170;5.386;2023-08-08T10:01:13;4.40;;;1.08;;
70800;SDS011;59616;52.170;5.386;2023-08-08T10:03:41;5.00;;;1.00;;
70800;SDS011;59616;52.170;5.386;2023-08-08T10:06:10;2.60;;;0.95;;
70800;SDS011;59616;52.170;5.386;2023-08-08T10:08:37;4.97;;;1.00;;
70800;SDS011;59616;52.170;5.386;2023-08-08T10:11:05;3.75;;;0.88;;
70800;SDS011;59616;52.170;5.386;2023-08-08T10:13:33;3.50;;;0.77;;
70800;SDS011;59616;52.170;5.386;2023-08-08T10:16:11;2.40;;;1.08;;
70800;SDS011;59616;52.170;5.386;2023-08-08T10:18:38;4.03;;;0.98;;
70800;SDS011;59616;52.170;5.386;2023-08-08T10:21:06;4.38;;;0.88;;
70800;SDS011;59616;52.170;5.386;2023-08-08T10:23:37;5.78;;;1.00;;
70800;SDS011;59616;52.170;5.386;2023-08-08T10:26:04;2.53;;;0.90;;
70800;SDS011;59616;52.170;5.386;2023-08-08T10:28:32;4.93;;;1.65;;
70800;SDS011;59616;52.170;5.386;2023-08-08T10:31:01;1.63;;;0.70;;
70800;SDS011;59616;52.170;5.386;2023-08-08T10:33:38;4.00;;;0.90;;
70800;SDS011;59616;52.170;5.386;2023-08-08T10:36:08;8.02;;;1.00;;
70800;SDS011;59616;52.170;5.386;2023-08-08T10:38:42;2.50;;;0.93;;
70800;SDS011;59616;52.170;5.386;2023-08-08T10:41:10;2.25;;;0.82;;
70800;SDS011;59616;52.170;5.386;2023-08-08T10:43:38;3.85;;;0.80;;
70800;SDS011;59616;52.170;5.386;2023-08-08T10:46:07;4.43;;;0.82;;
70800;SDS011;59616;52.170;5.386;2023-08-08T10:48:50;3.97;;;0.90;;
70800;SDS011;59616;52.170;5.386;2023-08-08T10:51:17;3.35;;;0.80;;
70800;SDS011;59616;52.170;5.386;2023-08-08T10:53:45;1.98;;;0.70;;
70800;SDS011;59616;52.170;5.386;2023-08-08T10:56:13;1.73;;;0.52;;
70800;SDS011;59616;52.170;5.386;2023-08-08T10:58:41;4.00;;;1.00;;
70800;SDS011;59616;52.170;5.386;2023-08-08T11:01:09;2.63;;;0.80;;
70800;SDS011;59616;52.170;5.386;2023-08-08T11:03:39;1.98;;;0.85;;
70800;SDS011;59616;52.170;5.386;2023-08-08T11:06:07;2.75;;;0.82;;
70800;SDS011;59616;52.170;5.386;2023-08-08T11:08:35;1.48;;;0.80;;
70800;SDS011;59616;52.170;5.386;2023-08-08T11:11:05;2.42;;;0.90;;
70800;SDS011;59616;52.170;5.386;2023-08-08T11:13:33;4.60;;;1.10;;
70800;SDS011;59616;52.170;5.386;2023-08-08T11:16:00;4.53;;;1.00;;
70800;SDS011;59616;52.170;5.386;2023-08-08T11:18:28;3.53;;;0.90;;
70800;SDS011;59616;52.170;5.386;2023-08-08T11:20:56;4.07;;;1.40;;
70800;SDS011;59616;52.170;5.386;2023-08-08T11:23:45;2.25;;;0.90;;
70800;SDS011;59616;52.170;5.386;2023-08-08T11:26:14;4.70;;;1.00;;
70800;SDS011;59616;52.170;5.386;2023-08-08T11:28:51;3.58;;;0.90;;
70800;SDS011;59616;52.170;5.386;2023-08-08T11:31:19;2.03;;;0.75;;
70800;SDS011;59616;52.170;5.386;2023-08-08T11:33:48;3.72;;;0.90;;
70800;SDS011;59616;52.170;5.386;2023-08-08T11:36:15;1.23;;;0.80;;
70800;SDS011;59616;52.170;5.386;2023-08-08T11:38:42;1.83;;;0.77;;
70800;SDS011;59616;52.170;5.386;2023-08-08T11:41:10;1.90;;;0.80;;
70800;SDS011;59616;52.170;5.386;2023-08-08T11:43:38;2.65;;;0.80;;
70800;SDS011;59616;52.170;5.386;2023-08-08T11:46:09;1.30;;;0.80;;
70800;SDS011;59616;52.170;5.386;2023-08-08T11:48:37;1.33;;;0.70;;
70800;SDS011;59616;52.170;5.386;2023-08-08T11:51:04;1.85;;;0.80;;
70800;SDS011;59616;52.170;5.386;2023-08-08T11:53:32;4.18;;;0.90;;
70800;SDS011;59616;52.170;5.386;2023-08-08T11:56:00;3.65;;;0.80;;
70800;SDS011;59616;52.170;5.386;2023-08-08T11:58:29;3.13;;;0.82;;
70800;SDS011;59616;52.170;5.386;2023-08-08T12:00:58;1.88;;;1.00;;
70800;SDS011;59616;52.170;5.386;2023-08-08T12:03:25;1.40;;;0.60;;
70800;SDS011;59616;52.170;5.386;2023-08-08T12:05:53;3.60;;;1.00;;
70800;SDS011;59616;52.170;5.386;2023-08-08T12:08:20;4.55;;;0.90;;
70800;SDS011;59616;52.170;5.386;2023-08-08T12:10:50;1.90;;;0.80;;
70800;SDS011;59616;52.170;5.386;2023-08-08T12:13:23;1.75;;;0.80;;
70800;SDS011;59616;52.170;5.386;2023-08-08T12:15:55;3.70;;;0.70;;
70800;SDS011;59616;52.170;5.386;2023-08-08T12:18:23;2.38;;;0.70;;
70800;SDS011;59616;52.170;5.386;2023-08-08T12:20:50;3.05;;;0.82;;
70800;SDS011;59616;52.170;5.386;2023-08-08T12:23:18;3.97;;;0.80;;
70800;SDS011;59616;52.170;5.386;2023-08-08T12:25:45;2.67;;;0.80;;
70800;SDS011;59616;52.170;5.386;2023-08-08T12:28:13;2.15;;;0.60;;
70800;SDS011;59616;52.170;5.386;2023-08-08T12:30:41;3.25;;;0.95;;
70800;SDS011;59616;52.170;5.386;2023-08-08T12:33:09;2.72;;;0.90;;
70800;SDS011;59616;52.170;5.386;2023-08-08T12:35:36;3.05;;;0.70;;
70800;SDS011;59616;52.170;5.386;2023-08-08T12:38:04;3.33;;;0.80;;
70800;SDS011;59616;52.170;5.386;2023-08-08T12:40:31;4.70;;;0.95;;
70800;SDS011;59616;52.170;5.386;2023-08-08T12:43:00;4.88;;;0.88;;
70800;SDS011;59616;52.170;5.386;2023-08-08T12:45:27;1.92;;;0.80;;
70800;SDS011;59616;52.170;5.386;2023-08-08T12:47:54;3.45;;;0.90;;
70800;SDS011;59616;52.170;5.386;2023-08-08T12:50:22;3.63;;;0.90;;
70800;SDS011;59616;52.170;5.386;2023-08-08T12:52:49;2.67;;;0.90;;
70800;SDS011;59616;52.170;5.386;2023-08-08T12:55:17;2.28;;;0.65;;
70800;SDS011;59616;52.170;5.386;2023-08-08T12:57:44;3.33;;;0.80;;
70800;SDS011;59616;52.170;5.386;2023-08-08T13:00:12;3.80;;;0.80;;
70800;SDS011;59616;52.170;5.386;2023-08-08T13:02:39;2.65;;;0.70;;
70800;SDS011;59616;52.170;5.386;2023-08-08T13:05:07;2.72;;;0.70;;
70800;SDS011;59616;52.170;5.386;2023-08-08T13:07:36;4.07;;;1.00;;
70800;SDS011;59616;52.170;5.386;2023-08-08T13:10:03;1.90;;;0.70;;
70800;SDS011;59616;52.170;5.386;2023-08-08T13:12:31;3.55;;;0.80;;
70800;SDS011;59616;52.170;5.386;2023-08-08T13:14:58;2.63;;;0.70;;
70800;SDS011;59616;52.170;5.386;2023-08-08T13:17:25;3.20;;;0.93;;
70800;SDS011;59616;52.170;5.386;2023-08-08T13:19:53;2.78;;;0.90;;
70800;SDS011;59616;52.170;5.386;2023-08-08T13:22:20;4.28;;;0.93;;
70800;SDS011;59616;52.170;5.386;2023-08-08T13:24:48;3.15;;;0.80;;
70800;SDS011;59616;52.170;5.386;2023-08-08T13:27:15;1.25;;;0.60;;
70800;SDS011;59616;52.170;5.386;2023-08-08T13:29:42;4.38;;;0.82;;
70800;SDS011;59616;52.170;5.386;2023-08-08T13:32:10;4.88;;;0.95;;
70800;SDS011;59616;52.170;5.386;2023-08-08T13:34:37;3.47;;;0.90;;
70800;SDS011;59616;52.170;5.386;2023-08-08T13:37:04;4.32;;;0.90;;
70800;SDS011;59616;52.170;5.386;2023-08-08T13:39:32;2.33;;;0.77;;
70800;SDS011;59616;52.170;5.386;2023-08-08T13:41:59;3.03;;;0.95;;
70800;SDS011;59616;52.170;5.386;2023-08-08T13:44:27;1.83;;;0.77;;
70800;SDS011;59616;52.170;5.386;2023-08-08T13:46:54;5.05;;;0.82;;
70800;SDS011;59616;52.170;5.386;2023-08-08T13:49:22;4.90;;;1.00;;
70800;SDS011;59616;52.170;5.386;2023-08-08T13:51:55;3.40;;;1.08;;
70800;SDS011;59616;52.170;5.386;2023-08-08T13:54:23;2.55;;;0.70;;
70800;SDS011;59616;52.170;5.386;2023-08-08T13:56:50;3.35;;;0.98;;
70800;SDS011;59616;52.170;5.386;2023-08-08T13:59:17;2.58;;;0.70;;
70800;SDS011;59616;52.170;5.386;2023-08-08T14:01:45;7.93;;;1.45;;
70800;SDS011;59616;52.170;5.386;2023-08-08T14:04:12;2.17;;;0.80;;
70800;SDS011;59616;52.170;5.386;2023-08-08T14:06:40;2.75;;;0.80;;
70800;SDS011;59616;52.170;5.386;2023-08-08T14:09:07;4.55;;;1.00;;
70800;SDS011;59616;52.170;5.386;2023-08-08T14:11:36;2.97;;;0.90;;
70800;SDS011;59616;52.170;5.386;2023-08-08T14:14:03;2.67;;;0.93;;
70800;SDS011;59616;52.170;5.386;2023-08-08T14:16:31;4.53;;;1.30;;
70800;SDS011;59616;52.170;5.386;2023-08-08T14:18:59;3.00;;;0.85;;
70800;SDS011;59616;52.170;5.386;2023-08-08T14:21:26;3.63;;;0.95;;
70800;SDS011;59616;52.170;5.386;2023-08-08T14:23:53;2.88;;;0.90;;
70800;SDS011;59616;52.170;5.386;2023-08-08T14:26:21;5.25;;;1.17;;
70800;SDS011;59616;52.170;5.386;2023-08-08T14:28:48;4.90;;;0.80;;
70800;SDS011;59616;52.170;5.386;2023-08-08T14:31:15;3.58;;;0.90;;
70800;SDS011;59616;52.170;5.386;2023-08-08T14:33:43;2.97;;;0.98;;
70800;SDS011;59616;52.170;5.386;2023-08-08T14:36:10;4.43;;;0.77;;
70800;SDS011;59616;52.170;5.386;2023-08-08T14:38:37;1.45;;;0.70;;
70800;SDS011;59616;52.170;5.386;2023-08-08T14:41:05;3.47;;;0.80;;
70800;SDS011;59616;52.170;5.386;2023-08-08T14:43:32;3.25;;;0.93;;
70800;SDS011;59616;52.170;5.386;2023-08-08T14:46:00;3.90;;;1.05;;
70800;SDS011;59616;52.170;5.386;2023-08-08T14:48:27;3.60;;;0.90;;